Time;durP1;ratioP1;P1;durP2;ratioP2;P2;SDS_P1;SDS_P2;PMS_P1;PMS_P2;Temp;Humidity;BMP_temperature;BMP_pressure;BME280_temperature;BME280_humidity;BME280_pressure;Samples;Min_cycle;Max_cycle;Signal;HPM_P1;HPM_P2
2023/01/02 00:01:05;;;;;;;10.03;4.57;;;11.70;99.90;;;;;;5052605;28;20489;-50
2023/01/02 00:03:31;;;;;;;9.50;3.97;;;11.70;99.90;;;;;;5041911;28;20987;-50
2023/01/02 00:05:58;;;;;;;11.00;4.50;;;11.70;99.90;;;;;;5030208;28;20501;-50
2023/01/02 00:08:25;;;;;;;12.70;5.07;;;11.70;99.90;;;;;;5032032;28;20505;-51
2023/01/02 00:10:51;;;;;;;7.60;5.87;;;11.70;99.90;;;;;;5043786;28;20536;-52
2023/01/02 00:13:18;;;;;;;12.30;6.07;;;11.80;99.90;;;;;;5037831;28;21065;-52
2023/01/02 00:15:45;;;;;;;14.87;6.80;;;11.80;99.90;;;;;;5032130;28;20480;-51
2023/01/02 00:18:12;;;;;;;11.20;7.57;;;12.00;99.90;;;;;;5031906;28;21008;-53
2023/01/02 00:20:39;;;;;;;15.63;7.83;;;11.90;99.90;;;;;;5031042;28;21033;-52
2023/01/02 00:23:05;;;;;;;11.90;7.00;;;11.90;99.90;;;;;;5031868;28;20995;-53
2023/01/02 00:25:33;;;;;;;18.73;8.70;;;11.90;99.90;;;;;;5026640;28;20524;-53
2023/01/02 00:28:00;;;;;;;12.63;6.53;;;11.90;99.90;;;;;;5034060;28;20477;-53
2023/01/02 00:30:27;;;;;;;14.83;7.60;;;11.90;99.90;;;;;;5031868;28;20456;-53
2023/01/02 00:32:55;;;;;;;20.20;7.40;;;11.80;99.90;;;;;;5050930;28;21043;-54
2023/01/02 00:35:22;;;;;;;17.70;9.47;;;11.70;99.90;;;;;;5032336;28;20556;-53
2023/01/02 00:37:48;;;;;;;14.27;7.13;;;11.70;99.90;;;;;;5026668;28;20518;-52
2023/01/02 00:40:15;;;;;;;9.53;6.37;;;11.60;99.90;;;;;;5030101;28;20552;-52
2023/01/02 00:42:41;;;;;;;9.90;7.10;;;11.60;99.90;;;;;;5029223;28;20488;-53
2023/01/02 00:45:10;;;;;;;10.73;7.30;;;11.50;99.90;;;;;;5032600;28;20588;-53
2023/01/02 00:47:37;;;;;;;12.77;6.83;;;11.40;99.90;;;;;;5031774;28;20508;-53
2023/01/02 00:50:06;;;;;;;10.77;7.07;;;11.40;99.90;;;;;;5032876;28;20555;-53
2023/01/02 00:52:33;;;;;;;12.23;7.67;;;11.30;99.90;;;;;;5029161;28;21067;-52
2023/01/02 00:54:59;;;;;;;13.90;7.67;;;11.30;99.90;;;;;;5036351;28;20451;-51
2023/01/02 00:57:26;;;;;;;17.17;10.57;;;11.30;99.90;;;;;;5028579;28;20555;-53
2023/01/02 00:59:52;;;;;;;18.57;9.93;;;11.30;99.90;;;;;;5029477;28;20556;-52
2023/01/02 01:02:19;;;;;;;17.10;10.47;;;11.30;99.90;;;;;;5032390;28;20483;-51
2023/01/02 01:04:45;;;;;;;14.63;10.23;;;11.50;99.90;;;;;;5030198;28;20572;-53
2023/01/02 01:07:14;;;;;;;13.73;9.40;;;11.50;99.90;;;;;;5030785;28;20552;-52
2023/01/02 01:09:40;;;;;;;20.03;10.10;;;11.60;99.90;;;;;;5034189;28;20563;-52
2023/01/02 01:12:07;;;;;;;20.70;9.80;;;11.70;99.90;;;;;;5018260;28;20493;-53
2023/01/02 01:14:33;;;;;;;19.30;10.43;;;11.80;99.90;;;;;;5013928;28;20496;-54
2023/01/02 01:17:00;;;;;;;19.67;10.80;;;11.80;99.90;;;;;;5031702;28;20481;-52
2023/01/02 01:19:29;;;;;;;25.93;11.57;;;11.80;99.90;;;;;;5029695;28;20548;-52
2023/01/02 01:21:55;;;;;;;22.20;8.93;;;11.80;99.90;;;;;;5030473;28;20552;-52
2023/01/02 01:24:23;;;;;;;21.53;10.13;;;11.80;99.90;;;;;;5032471;28;20579;-53
2023/01/02 01:26:50;;;;;;;21.37;10.33;;;11.80;99.90;;;;;;5031498;28;20528;-54
2023/01/02 01:29:16;;;;;;;20.00;8.93;;;11.80;99.90;;;;;;5031977;28;20544;-53
2023/01/02 01:31:43;;;;;;;15.97;9.30;;;11.80;99.90;;;;;;5031280;28;20543;-52
2023/01/02 01:34:11;;;;;;;15.93;9.53;;;11.80;99.90;;;;;;5035014;28;20656;-52
2023/01/02 01:36:38;;;;;;;18.33;7.90;;;11.80;99.90;;;;;;5039764;28;20898;-52
2023/01/02 01:39:04;;;;;;;10.07;6.90;;;11.80;99.90;;;;;;5029883;28;21001;-51
2023/01/02 01:41:32;;;;;;;10.10;7.37;;;11.80;99.90;;;;;;5040193;28;20551;-54
2023/01/02 01:44:00;;;;;;;14.77;7.27;;;11.80;99.90;;;;;;5045701;28;20571;-53
2023/01/02 01:46:31;;;;;;;13.63;6.87;;;11.80;99.90;;;;;;5029848;28;20544;-53
2023/01/02 01:49:02;;;;;;;14.53;6.93;;;11.80;99.90;;;;;;5033806;28;20497;-53
2023/01/02 01:51:32;;;;;;;17.97;6.73;;;11.80;99.90;;;;;;5034909;28;20476;-52
2023/01/02 01:54:06;;;;;;;12.67;6.77;;;11.80;99.90;;;;;;5034467;28;20504;-52
2023/01/02 01:56:35;;;;;;;9.33;6.30;;;11.80;99.90;;;;;;5033986;28;20865;-52
2023/01/02 01:59:03;;;;;;;13.40;5.90;;;11.80;99.90;;;;;;5036155;28;20961;-53
2023/01/02 02:01:30;;;;;;;10.57;5.77;;;11.80;99.90;;;;;;5034629;28;21053;-53
2023/01/02 02:03:57;;;;;;;12.83;6.20;;;11.80;99.90;;;;;;5032013;28;20584;-52
2023/01/02 02:06:23;;;;;;;11.10;6.33;;;11.70;99.90;;;;;;5029234;28;21022;-53
2023/01/02 02:08:54;;;;;;;8.50;5.30;;;11.70;1.40;;;;;;5034425;28;20485;-53
2023/01/02 02:11:21;;;;;;;19.53;5.63;;;11.60;99.90;;;;;;5032527;28;20552;-53
2023/01/02 02:13:50;;;;;;;14.43;6.03;;;11.70;1.40;;;;;;5028133;28;20489;-53
2023/01/02 02:16:24;;;;;;;17.23;5.90;;;11.70;99.90;;;;;;5044365;28;20550;-52
2023/01/02 02:19:18;;;;;;;10.60;5.10;;;11.60;99.90;;;;;;5022236;28;20910;-52
2023/01/02 02:22:10;;;;;;;11.23;5.80;;;11.60;99.90;;;;;;5044653;28;20893;-52
2023/01/02 02:24:58;;;;;;;9.30;5.73;;;11.60;99.90;;;;;;5053869;28;20579;-53
2023/01/02 02:27:59;;;;;;;10.50;5.20;;;11.60;99.90;;;;;;5054219;28;20484;-53
2023/01/02 02:30:34;;;;;;;9.23;5.27;;;11.50;99.90;;;;;;5042788;28;20540;-53
2023/01/02 02:33:18;;;;;;;7.27;5.33;;;11.50;99.90;;;;;;5034078;28;20488;-52
2023/01/02 02:35:58;;;;;;;13.30;4.73;;;11.50;99.90;;;;;;5037531;28;20468;-52
2023/01/02 02:38:35;;;;;;;16.07;5.30;;;11.60;99.90;;;;;;5030477;28;20993;-53
2023/01/02 02:41:11;;;;;;;7.73;4.10;;;11.60;99.90;;;;;;5033721;28;20541;-52
2023/01/02 02:43:47;;;;;;;12.07;4.93;;;11.60;1.40;;;;;;5033162;28;20559;-53
2023/01/02 02:46:23;;;;;;;13.37;4.80;;;11.70;99.90;;;;;;5032159;28;20548;-53
2023/01/02 02:48:59;;;;;;;8.50;4.80;;;11.70;99.90;;;;;;5035308;28;20600;-53
2023/01/02 02:51:32;;;;;;;10.17;4.80;;;11.80;99.90;;;;;;5029102;28;20551;-52
2023/01/02 02:54:03;;;;;;;7.67;4.50;;;11.90;99.90;;;;;;5032714;28;20552;-53
2023/01/02 02:56:31;;;;;;;9.03;4.13;;;12.00;99.90;;;;;;5032605;28;20560;-53
2023/01/02 02:58:58;;;;;;;11.73;4.40;;;12.00;99.90;;;;;;5031504;28;20549;-53
2023/01/02 03:01:28;;;;;;;11.00;4.40;;;12.00;99.90;;;;;;5029319;28;20544;-53
2023/01/02 03:03:55;;;;;;;12.67;4.50;;;12.10;99.90;;;;;;5030517;28;20484;-52
2023/01/02 03:06:45;;;;;;;8.73;4.90;;;12.10;99.90;;;;;;5030768;28;20553;-53
2023/01/02 03:09:18;;;;;;;7.20;4.07;;;12.10;99.90;;;;;;5029834;28;20441;-53
2023/01/02 03:11:54;;;;;;;6.97;4.43;;;12.10;99.90;;;;;;5033437;28;20533;-54
2023/01/02 03:14:24;;;;;;;11.60;4.57;;;12.10;99.90;;;;;;5023623;28;21052;-53
2023/01/02 03:16:59;;;;;;;5.13;4.43;;;12.10;99.90;;;;;;5024043;28;20568;-54
2023/01/02 03:19:30;;;;;;;13.97;4.53;;;12.10;99.90;;;;;;5015548;28;21047;-52
2023/01/02 03:22:01;;;;;;;8.03;3.70;;;12.20;99.90;;;;;;5015479;28;20471;-52
2023/01/02 03:24:28;;;;;;;14.47;4.50;;;12.20;99.90;;;;;;5012438;28;20504;-52
2023/01/02 03:27:01;;;;;;;9.40;5.20;;;12.20;99.90;;;;;;5016048;28;20553;-53
2023/01/02 03:29:33;;;;;;;12.53;4.40;;;12.30;99.90;;;;;;5023560;28;20544;-52
2023/01/02 03:32:04;;;;;;;6.73;4.50;;;12.40;99.90;;;;;;5031094;28;20532;-52
2023/01/02 03:34:35;;;;;;;16.97;4.63;;;12.50;99.50;;;;;;5032513;28;20500;-52
2023/01/02 03:37:06;;;;;;;17.50;4.90;;;12.50;99.60;;;;;;5030130;28;20543;-52
2023/01/02 03:39:37;;;;;;;9.63;4.90;;;12.40;83.60;;;;;;5032613;28;20449;-53
2023/01/02 03:42:08;;;;;;;6.80;4.00;;;12.50;75.20;;;;;;5030837;28;20548;-53
2023/01/02 03:44:40;;;;;;;8.83;3.77;;;12.50;23.10;;;;;;5024574;28;20567;-53
2023/01/02 03:47:20;;;;;;;7.73;4.07;;;12.60;27.40;;;;;;5031255;28;20540;-53
2023/01/02 03:49:51;;;;;;;16.77;4.60;;;12.60;35.70;;;;;;5020084;28;20544;-53
2023/01/02 03:52:18;;;;;;;16.40;4.90;;;12.80;43.80;;;;;;5032265;28;20541;-53
2023/01/02 03:54:45;;;;;;;18.77;4.20;;;12.90;50.10;;;;;;5022620;28;20537;-53
2023/01/02 03:57:22;;;;;;;12.23;3.93;;;12.80;53.70;;;;;;5031612;28;20493;-52
2023/01/02 03:59:59;;;;;;;8.73;4.13;;;12.90;52.90;;;;;;5029990;28;20579;-52
2023/01/02 04:02:35;;;;;;;19.90;4.90;;;12.90;57.10;;;;;;5028521;28;20544;-52
2023/01/02 04:05:08;;;;;;;5.10;3.80;;;12.90;57.30;;;;;;5027428;28;20517;-53
2023/01/02 04:07:43;;;;;;;8.67;4.43;;;12.80;57.80;;;;;;5021963;28;20918;-52
2023/01/02 04:10:13;;;;;;;5.70;3.67;;;12.80;55.80;;;;;;5024699;28;20546;-53
2023/01/02 04:12:43;;;;;;;5.77;3.77;;;12.80;54.60;;;;;;5028643;28;20568;-52
2023/01/02 04:15:13;;;;;;;8.20;3.90;;;12.80;56.60;;;;;;5027022;28;20540;-53
2023/01/02 04:17:47;;;;;;;6.23;4.07;;;12.80;57.30;;;;;;5026964;28;20539;-54
2023/01/02 04:20:17;;;;;;;6.13;4.13;;;12.80;58.30;;;;;;5025886;28;20548;-53
2023/01/02 04:22:50;;;;;;;9.90;4.20;;;12.80;60.70;;;;;;5028030;28;20481;-51
2023/01/02 04:25:18;;;;;;;7.73;4.03;;;12.80;62.50;;;;;;5030286;28;20575;-53
2023/01/02 04:27:50;;;;;;;8.83;4.73;;;12.90;66.10;;;;;;5025501;28;20548;-53
2023/01/02 04:30:17;;;;;;;7.03;4.07;;;12.90;68.60;;;;;;5029198;28;20615;-52
2023/01/02 04:32:47;;;;;;;7.43;4.40;;;12.90;69.20;;;;;;5028335;28;20569;-53
2023/01/02 04:35:17;;;;;;;8.67;4.70;;;12.90;72.90;;;;;;5029472;28;20672;-53
2023/01/02 04:37:44;;;;;;;6.20;4.00;;;12.90;73.70;;;;;;5030729;28;20544;-53
2023/01/02 04:40:19;;;;;;;4.87;3.90;;;13.00;74.90;;;;;;5024862;28;20461;-53
2023/01/02 04:42:46;;;;;;;8.73;4.33;;;13.00;81.60;;;;;;5023187;28;20563;-53
2023/01/02 04:45:13;;;;;;;7.10;4.30;;;13.00;83.00;;;;;;5027961;28;20569;-53
2023/01/02 04:47:40;;;;;;;6.23;4.17;;;13.00;84.30;;;;;;5022885;28;20545;-53
2023/01/02 04:50:09;;;;;;;6.13;4.60;;;13.10;88.40;;;;;;5028929;28;20472;-54
2023/01/02 04:52:36;;;;;;;8.73;4.50;;;13.10;93.60;;;;;;5031804;28;20505;-52
2023/01/02 04:55:03;;;;;;;6.10;4.50;;;13.20;96.50;;;;;;5031128;28;20543;-53
2023/01/02 04:57:30;;;;;;;4.77;3.93;;;13.20;97.30;;;;;;5022143;28;20510;-53
2023/01/02 04:59:57;;;;;;;16.50;4.50;;;13.10;99.10;;;;;;5028528;28;20560;-53
2023/01/02 05:02:23;;;;;;;7.60;3.60;;;13.20;99.90;;;;;;5024365;28;21210;-52
2023/01/02 05:04:50;;;;;;;6.37;3.70;;;13.20;99.90;;;;;;5028213;28;20579;-53
2023/01/02 05:07:18;;;;;;;4.03;3.57;;;13.30;99.90;;;;;;5034923;28;20556;-52
2023/01/02 05:09:44;;;;;;;6.03;4.63;;;13.30;99.90;;;;;;5037233;28;20532;-53
2023/01/02 05:12:11;;;;;;;6.27;4.60;;;13.30;99.90;;;;;;5038453;28;21023;-52
2023/01/02 05:14:37;;;;;;;6.63;4.07;;;13.30;99.90;;;;;;5037639;28;20492;-51
2023/01/02 05:17:04;;;;;;;7.73;3.97;;;13.40;99.90;;;;;;5033685;28;20505;-53
2023/01/02 05:19:31;;;;;;;9.40;3.83;;;13.40;99.90;;;;;;5036298;28;20491;-52
2023/01/02 05:24:42;;;;;;;5.87;4.43;;;13.50;99.90;;;;;;5034812;28;21004;-52
2023/01/02 05:27:09;;;;;;;7.80;4.63;;;13.50;99.90;;;;;;5029383;28;20552;-53
2023/01/02 05:29:36;;;;;;;8.17;4.80;;;13.50;99.90;;;;;;5034964;28;20494;-53
2023/01/02 05:32:02;;;;;;;4.77;3.83;;;13.50;99.90;;;;;;5033360;28;20461;-52
2023/01/02 05:34:29;;;;;;;8.33;4.10;;;13.40;99.90;;;;;;5033934;28;20481;-52
2023/01/02 05:36:55;;;;;;;5.70;4.40;;;13.40;99.90;;;;;;5032423;28;20456;-52
2023/01/02 05:39:22;;;;;;;10.90;3.67;;;13.40;99.90;;;;;;5038791;28;20449;-53
2023/01/02 05:41:50;;;;;;;4.40;3.80;;;13.50;99.90;;;;;;5039954;28;20503;-53
2023/01/02 05:44:16;;;;;;;10.90;4.53;;;13.40;99.90;;;;;;5037626;28;20477;-52
2023/01/02 05:46:43;;;;;;;6.70;3.67;;;13.50;99.90;;;;;;5032819;28;20484;-53
2023/01/02 05:49:11;;;;;;;9.53;3.60;;;13.50;99.90;;;;;;5024699;28;20877;-53
2023/01/02 05:51:38;;;;;;;4.57;3.37;;;13.60;1.40;;;;;;5025215;28;20508;-52
2023/01/02 05:54:05;;;;;;;4.60;3.80;;;13.50;99.90;;;;;;5038914;22;20542;-52
2023/01/02 05:56:31;;;;;;;4.63;3.97;;;13.50;99.90;;;;;;5014054;28;20450;-52
2023/01/02 05:58:59;;;;;;;4.40;4.00;;;13.40;99.90;;;;;;5013951;28;20501;-52
2023/01/02 06:01:28;;;;;;;14.03;3.33;;;13.40;99.90;;;;;;5013136;28;20489;-52
2023/01/02 06:03:57;;;;;;;4.17;3.40;;;13.40;99.90;;;;;;5012589;28;20486;-51
2023/01/02 06:06:26;;;;;;;6.13;4.23;;;13.40;99.90;;;;;;5008277;28;20535;-51
2023/01/02 06:08:53;;;;;;;10.53;4.00;;;13.40;99.90;;;;;;5014499;28;20543;-51
2023/01/02 06:11:19;;;;;;;6.33;4.07;;;13.40;99.90;;;;;;5013782;28;20951;-51
2023/01/02 06:13:46;;;;;;;4.80;4.13;;;13.40;99.90;;;;;;5013095;28;20526;-52
2023/01/02 06:16:14;;;;;;;7.17;3.60;;;13.40;99.90;;;;;;5003084;28;20495;-52
2023/01/02 06:18:41;;;;;;;5.80;4.20;;;13.40;99.90;;;;;;5004842;28;20494;-51
2023/01/02 06:21:10;;;;;;;3.83;3.40;;;13.40;99.90;;;;;;5010167;28;20498;-52
2023/01/02 06:23:37;;;;;;;4.87;3.63;;;13.30;99.90;;;;;;5006073;28;20514;-52
2023/01/02 06:26:05;;;;;;;6.50;4.10;;;13.40;99.90;;;;;;5012890;28;20544;-51
2023/01/02 06:28:32;;;;;;;6.17;3.70;;;13.40;99.90;;;;;;5011803;28;20517;-52
2023/01/02 06:31:02;;;;;;;7.83;4.60;;;13.40;99.90;;;;;;5010586;28;20501;-52
2023/01/02 06:33:31;;;;;;;8.53;3.80;;;13.40;99.90;;;;;;5012321;28;20517;-52
2023/01/02 06:35:58;;;;;;;4.90;3.50;;;13.40;99.90;;;;;;5013246;28;20494;-52
2023/01/02 06:38:25;;;;;;;7.00;4.23;;;13.40;99.90;;;;;;5013169;28;20494;-52
2023/01/02 06:40:53;;;;;;;4.20;3.80;;;13.50;99.90;;;;;;5013413;28;20960;-52
2023/01/02 06:43:20;;;;;;;7.37;4.20;;;13.50;99.90;;;;;;5013124;28;20535;-52
2023/01/02 06:45:46;;;;;;;5.97;3.87;;;13.50;99.90;;;;;;5009603;28;20535;-52
2023/01/02 06:48:13;;;;;;;4.50;3.83;;;13.50;99.90;;;;;;5012923;28;20494;-52
2023/01/02 06:50:41;;;;;;;3.73;3.13;;;13.50;99.90;;;;;;5008844;28;20489;-52
2023/01/02 06:53:08;;;;;;;9.40;3.37;;;13.60;99.90;;;;;;5007438;28;20510;-53
2023/01/02 06:55:34;;;;;;;7.03;4.03;;;13.50;99.90;;;;;;5011319;28;20493;-51
2023/01/02 06:58:01;;;;;;;7.10;4.70;;;13.60;99.90;;;;;;5012551;28;20524;-52
2023/01/02 07:00:28;;;;;;;8.97;5.27;;;13.60;99.90;;;;;;5011145;28;20520;-52
2023/01/02 07:02:54;;;;;;;6.33;4.10;;;13.60;99.90;;;;;;5006882;28;20522;-51
2023/01/02 07:05:21;;;;;;;3.40;3.10;;;13.70;99.90;;;;;;5006136;28;20514;-51
2023/01/02 07:07:49;;;;;;;4.77;3.67;;;13.70;99.90;;;;;;4999548;28;20495;-51
2023/01/02 07:10:15;;;;;;;3.63;3.33;;;13.80;99.90;;;;;;5000397;28;20935;-52
2023/01/02 07:12:42;;;;;;;5.67;2.80;;;13.80;99.90;;;;;;5011209;28;20505;-52
2023/01/02 07:15:09;;;;;;;4.07;3.10;;;13.80;99.90;;;;;;5009839;28;20891;-52
2023/01/02 07:17:36;;;;;;;12.63;3.10;;;13.70;99.90;;;;;;5008534;28;20503;-52
2023/01/02 07:20:02;;;;;;;3.40;3.10;;;13.70;99.90;;;;;;5007268;28;20586;-52
2023/01/02 07:22:29;;;;;;;7.40;3.80;;;13.80;99.90;;;;;;5000800;28;20835;-52
2023/01/02 07:24:57;;;;;;;5.17;3.30;;;13.80;99.90;;;;;;5006065;28;20545;-52
2023/01/02 07:27:23;;;;;;;8.50;3.70;;;13.80;99.90;;;;;;5006319;28;21282;-52
2023/01/02 07:29:50;;;;;;;15.53;3.50;;;13.80;99.90;;;;;;5005742;28;20559;-52
2023/01/02 07:32:16;;;;;;;8.23;3.50;;;13.90;99.90;;;;;;5005420;28;20490;-52
2023/01/02 07:34:43;;;;;;;10.33;3.20;;;13.80;99.90;;;;;;5004305;28;20518;-52
2023/01/02 07:37:10;;;;;;;10.93;3.63;;;13.80;99.90;;;;;;5007897;28;20863;-52
2023/01/02 07:39:36;;;;;;;4.73;3.47;;;13.80;99.90;;;;;;5009162;28;20503;-52
2023/01/02 07:42:04;;;;;;;3.87;3.40;;;13.80;99.90;;;;;;5010668;28;20501;-52
2023/01/02 07:44:31;;;;;;;8.37;3.80;;;13.80;99.90;;;;;;5006681;28;20517;-52
2023/01/02 07:46:58;;;;;;;5.10;3.37;;;13.80;99.90;;;;;;5009926;28;20517;-51
2023/01/02 07:49:24;;;;;;;5.13;4.17;;;13.90;99.90;;;;;;5008784;28;20494;-51
2023/01/02 07:51:51;;;;;;;6.28;3.22;;;13.80;99.90;;;;;;5008420;28;20547;-52
2023/01/02 07:54:17;;;;;;;9.10;3.37;;;13.80;99.90;;;;;;5008422;28;20270;-52
2023/01/02 07:56:44;;;;;;;12.33;4.23;;;13.80;99.90;;;;;;5012088;28;20473;-52
2023/01/02 07:59:12;;;;;;;3.97;3.57;;;13.80;99.90;;;;;;5009929;28;20561;-52
2023/01/02 08:01:38;;;;;;;7.00;3.10;;;13.80;99.90;;;;;;5008489;28;20494;-52
2023/01/02 08:04:05;;;;;;;7.50;3.50;;;13.90;99.90;;;;;;5006696;28;20519;-52
2023/01/02 08:06:33;;;;;;;5.70;3.23;;;13.90;99.90;;;;;;5002799;28;20521;-52
2023/01/02 08:08:59;;;;;;;6.60;3.27;;;14.00;99.90;;;;;;5008233;28;20506;-52
2023/01/02 08:11:26;;;;;;;4.93;3.37;;;14.00;99.90;;;;;;5010995;28;20486;-52
2023/01/02 08:13:52;;;;;;;4.80;3.03;;;14.00;99.90;;;;;;5003424;28;20944;-51
2023/01/02 08:16:21;;;;;;;4.77;2.87;;;14.00;99.90;;;;;;5007223;28;20507;-52
2023/01/02 08:18:51;;;;;;;2.90;2.60;;;14.00;99.90;;;;;;5008836;28;20465;-52
2023/01/02 08:21:17;;;;;;;8.23;3.27;;;14.10;85.90;;;;;;5008643;28;20509;-52
2023/01/02 08:23:44;;;;;;;7.00;3.40;;;14.10;84.20;;;;;;5007273;28;20540;-52
2023/01/02 08:26:11;;;;;;;9.43;3.20;;;14.20;79.40;;;;;;5004856;28;20932;-52
2023/01/02 08:28:39;;;;;;;8.50;2.80;;;14.20;20.40;;;;;;5001729;28;20463;-52
2023/01/02 08:31:09;;;;;;;4.80;3.30;;;14.20;23.50;;;;;;5009047;28;20508;-52
2023/01/02 08:33:37;;;;;;;9.67;3.20;;;14.20;23.60;;;;;;5009898;28;20485;-52
2023/01/02 08:36:04;;;;;;;8.13;3.10;;;14.20;26.40;;;;;;5010815;28;20485;-53
2023/01/02 08:38:31;;;;;;;4.57;3.83;;;14.30;30.30;;;;;;5004583;28;20484;-52
2023/01/02 08:40:58;;;;;;;6.53;3.77;;;14.30;32.00;;;;;;5011022;28;20474;-52
2023/01/02 08:43:25;;;;;;;4.50;3.60;;;14.40;31.20;;;;;;5008238;28;20483;-52
2023/01/02 08:45:51;;;;;;;12.60;3.53;;;14.40;36.50;;;;;;5007855;28;20512;-51
2023/01/02 08:48:18;;;;;;;13.00;3.13;;;14.40;36.70;;;;;;5008456;28;20493;-52
2023/01/02 08:50:46;;;;;;;3.17;2.50;;;14.40;38.80;;;;;;5004122;28;20494;-51
2023/01/02 08:53:13;;;;;;;9.07;2.63;;;14.50;40.90;;;;;;5008218;28;21030;-52
2023/01/02 08:55:39;;;;;;;4.10;2.97;;;14.50;40.90;;;;;;5009465;28;20493;-52
2023/01/02 08:58:06;;;;;;;8.27;2.80;;;14.50;43.40;;;;;;5003873;28;20552;-52
2023/01/02 09:00:32;;;;;;;6.30;3.23;;;14.60;43.50;;;;;;5005257;28;20528;-52
2023/01/02 09:02:59;;;;;;;8.00;3.20;;;14.50;45.80;;;;;;5005419;28;20510;-51
2023/01/02 09:05:29;;;;;;;7.43;3.20;;;14.60;46.50;;;;;;5009610;28;20960;-51
2023/01/02 09:07:57;;;;;;;9.50;3.10;;;14.60;55.30;;;;;;5008243;28;20458;-51
2023/01/02 09:10:24;;;;;;;6.33;2.90;;;14.70;56.30;;;;;;5007794;28;20486;-53
2023/01/02 09:12:50;;;;;;;5.93;2.80;;;14.80;64.20;;;;;;5005282;28;20536;-53
2023/01/02 09:15:17;;;;;;;4.73;2.63;;;14.80;66.30;;;;;;5005096;28;20497;-53
2023/01/02 09:17:43;;;;;;;8.00;2.80;;;14.80;65.40;;;;;;5007300;28;20498;-53
2023/01/02 09:20:10;;;;;;;5.70;3.17;;;14.90;69.80;;;;;;5010868;28;20480;-52
2023/01/02 09:22:37;;;;;;;4.07;3.10;;;14.90;71.30;;;;;;5005768;28;20489;-53
2023/01/02 09:25:06;;;;;;;5.80;2.80;;;15.00;74.10;;;;;;5000875;28;20883;-53
2023/01/02 09:27:33;;;;;;;8.53;3.10;;;15.00;73.70;;;;;;5002486;28;20513;-52
2023/01/02 09:29:59;;;;;;;3.10;2.60;;;15.10;77.90;;;;;;5008049;28;20498;-52
2023/01/02 09:32:26;;;;;;;4.80;2.50;;;15.10;79.80;;;;;;5008034;28;20497;-51
2023/01/02 09:34:52;;;;;;;7.87;2.77;;;15.10;82.20;;;;;;5004157;28;20510;-51
2023/01/02 09:37:19;;;;;;;5.53;2.60;;;15.20;84.10;;;;;;5004362;28;21020;-52
2023/01/02 09:39:46;;;;;;;6.53;2.00;;;15.20;86.40;;;;;;5001730;28;20465;-51
2023/01/02 09:42:16;;;;;;;5.03;2.70;;;15.30;87.70;;;;;;5003068;28;20477;-52
2023/01/02 09:44:47;;;;;;;7.10;2.77;;;15.30;91.00;;;;;;5003554;28;20528;-51
2023/01/02 09:47:18;;;;;;;8.03;2.60;;;15.30;92.20;;;;;;4999896;28;20522;-52
2023/01/02 09:49:48;;;;;;;6.70;2.83;;;15.30;94.40;;;;;;5009244;28;20494;-52
2023/01/02 09:52:18;;;;;;;10.03;2.30;;;15.30;93.40;;;;;;5011028;28;20446;-51
2023/01/02 09:54:44;;;;;;;8.57;2.67;;;15.30;94.80;;;;;;5004950;28;20551;-51
2023/01/02 09:57:23;;;;;;;5.30;2.60;;;15.30;95.10;;;;;;5009584;28;20983;-51
2023/01/02 09:59:57;;;;;;;7.70;3.17;;;15.40;98.10;;;;;;5007137;28;20477;-51
2023/01/02 10:02:37;;;;;;;11.57;3.07;;;15.40;95.60;;;;;;5013210;28;20581;-51
2023/01/02 10:05:16;;;;;;;7.00;2.63;;;15.40;98.50;;;;;;5011551;28;20559;-52
2023/01/02 10:07:47;;;;;;;4.90;3.37;;;15.40;99.60;;;;;;5004828;28;20582;-52
2023/01/02 10:10:22;;;;;;;5.33;2.37;;;15.40;98.60;;;;;;5014114;28;20454;-52
2023/01/02 10:13:03;;;;;;;2.60;1.57;;;15.30;98.30;;;;;;5008367;28;20493;-51
2023/01/02 10:15:31;;;;;;;8.67;3.03;;;15.40;99.90;;;;;;5008532;28;20532;-53
2023/01/02 10:18:15;;;;;;;9.23;2.37;;;15.40;99.90;;;;;;5012846;28;20525;-54
2023/01/02 10:20:45;;;;;;;9.67;3.17;;;15.40;99.90;;;;;;5011962;28;20501;-52
2023/01/02 10:23:17;;;;;;;3.27;2.43;;;15.40;98.60;;;;;;5008786;28;20585;-51
2023/01/02 10:25:49;;;;;;;8.60;2.70;;;15.40;99.90;;;;;;5010610;28;20463;-51
2023/01/02 10:28:25;;;;;;;5.97;2.50;;;15.40;99.90;;;;;;5006346;28;20541;-52
2023/01/02 10:30:54;;;;;;;18.63;3.30;;;15.40;99.90;;;;;;5006953;28;20489;-52
2023/01/02 10:33:27;;;;;;;7.30;3.00;;;15.40;99.90;;;;;;5011213;28;20532;-52
2023/01/02 10:35:57;;;;;;;7.63;3.10;;;15.30;99.80;;;;;;5013803;28;20457;-52
2023/01/02 10:38:23;;;;;;;5.60;2.90;;;15.30;99.90;;;;;;5005533;28;21121;-52
2023/01/02 10:40:50;;;;;;;16.13;3.00;;;15.30;99.90;;;;;;5011338;28;20502;-52
2023/01/02 10:43:19;;;;;;;10.60;3.50;;;15.30;99.90;;;;;;5011896;28;21073;-52
2023/01/02 10:45:45;;;;;;;5.87;2.70;;;15.30;99.90;;;;;;5005082;28;21265;-52
2023/01/02 10:48:12;;;;;;;6.93;2.60;;;15.30;99.90;;;;;;5012190;28;20975;-51
2023/01/02 10:50:42;;;;;;;4.70;2.60;;;15.30;99.90;;;;;;5011681;28;20537;-51
2023/01/02 10:53:19;;;;;;;5.07;2.40;;;15.30;99.90;;;;;;5004319;28;22397;-52
2023/01/02 10:55:45;;;;;;;3.67;2.30;;;15.30;99.90;;;;;;5004118;28;20486;-51
2023/01/02 10:58:19;;;;;;;7.50;2.20;;;15.30;99.90;;;;;;5003962;28;20539;-52
2023/01/02 11:00:49;;;;;;;5.27;3.20;;;15.30;99.90;;;;;;5010651;28;20467;-52
2023/01/02 11:03:20;;;;;;;8.43;3.00;;;15.30;99.90;;;;;;5004865;28;21100;-52
2023/01/02 11:05:49;;;;;;;4.10;2.17;;;15.30;99.90;;;;;;5003496;28;20476;-52
2023/01/02 11:08:18;;;;;;;4.90;2.77;;;15.30;99.90;;;;;;5004395;28;21094;-51
2023/01/02 11:10:45;;;;;;;3.60;2.30;;;15.30;99.90;;;;;;5006168;28;20936;-52
2023/01/02 11:13:14;;;;;;;8.50;2.50;;;15.20;98.10;;;;;;5008572;28;20481;-52
2023/01/02 11:15:49;;;;;;;8.57;2.93;;;15.20;97.90;;;;;;5004411;28;20648;-52
2023/01/02 11:18:25;;;;;;;5.93;2.80;;;15.20;98.20;;;;;;5007272;28;20459;-52
2023/01/02 11:20:54;;;;;;;6.20;3.03;;;15.20;94.80;;;;;;5007264;28;20544;-52
2023/01/02 11:23:23;;;;;;;13.30;3.57;;;15.10;93.70;;;;;;5007238;28;20541;-51
2023/01/02 11:25:51;;;;;;;3.73;2.83;;;15.10;90.40;;;;;;5003573;28;20470;-52
2023/01/02 11:28:20;;;;;;;9.07;2.77;;;15.10;90.70;;;;;;5010737;28;20569;-51
2023/01/02 11:30:50;;;;;;;9.60;3.30;;;15.10;94.80;;;;;;5009258;28;20909;-55
2023/01/02 11:33:27;;;;;;;6.27;2.43;;;15.10;96.30;;;;;;5011010;28;20481;-51
2023/01/02 11:35:55;;;;;;;8.03;2.60;;;15.20;97.40;;;;;;5001978;28;20463;-51
2023/01/02 11:38:25;;;;;;;7.27;2.53;;;15.20;98.80;;;;;;5006943;28;20474;-52
2023/01/02 11:40:55;;;;;;;11.40;2.60;;;15.20;94.40;;;;;;5006880;28;20897;-51
2023/01/02 11:46:23;;;;;;;5.90;3.10;;;15.10;93.50;;;;;;5005885;28;20457;-52
2023/01/02 11:48:52;;;;;;;9.33;2.90;;;15.10;91.70;;;;;;5003700;28;20956;-52
2023/01/02 11:51:19;;;;;;;8.27;2.63;;;15.10;92.60;;;;;;5007072;28;20476;-51
2023/01/02 11:53:51;;;;;;;4.03;2.60;;;15.20;96.30;;;;;;5024719;22;20537;-57
2023/01/02 11:56:22;;;;;;;8.33;2.30;;;15.30;97.70;;;;;;5028048;28;20977;-56
2023/01/02 11:58:54;;;;;;;8.60;3.10;;;15.30;94.80;;;;;;5029283;28;20497;-57
2023/01/02 12:01:29;;;;;;;10.63;3.80;;;15.20;94.50;;;;;;5025217;28;21048;-57
2023/01/02 12:03:56;;;;;;;14.33;3.60;;;15.20;91.80;;;;;;5020370;28;20484;-56
2023/01/02 12:06:25;;;;;;;4.33;2.20;;;15.20;94.80;;;;;;5010849;28;20881;-58
2023/01/02 12:09:05;;;;;;;3.70;3.03;;;15.20;95.50;;;;;;5004621;28;20489;-57
2023/01/02 12:11:49;;;;;;;4.13;2.40;;;15.20;93.70;;;;;;5005676;28;20497;-57
2023/01/02 12:14:18;;;;;;;7.33;2.77;;;15.20;94.80;;;;;;5014360;28;20514;-59
2023/01/02 12:16:57;;;;;;;4.93;2.80;;;15.20;95.90;;;;;;5016197;28;20513;-56
2023/01/02 12:19:49;;;;;;;5.90;2.90;;;15.20;96.30;;;;;;5013680;28;20493;-57
2023/01/02 12:22:43;;;;;;;8.60;3.00;;;15.10;94.70;;;;;;5010458;28;20494;-58
2023/01/02 12:25:31;;;;;;;6.20;3.23;;;15.10;94.90;;;;;;5005780;28;20551;-57
2023/01/02 12:28:06;;;;;;;5.17;2.90;;;15.10;95.30;;;;;;5008223;28;20519;-57
2023/01/02 12:30:38;;;;;;;5.80;3.00;;;15.10;94.40;;;;;;5005494;28;20492;-57
2023/01/02 12:33:35;;;;;;;7.70;2.47;;;15.10;91.20;;;;;;5005806;28;20459;-58
2023/01/02 12:36:20;;;;;;;6.20;3.00;;;15.10;93.50;;;;;;5006072;28;20592;-56
2023/01/02 12:39:11;;;;;;;5.10;2.63;;;15.00;94.20;;;;;;5000264;28;20493;-56
2023/01/02 12:41:45;;;;;;;8.20;2.60;;;15.00;93.80;;;;;;5000524;28;20469;-56
2023/01/02 12:44:20;;;;;;;14.30;2.90;;;15.00;91.30;;;;;;5001965;28;20580;-58
2023/01/02 12:47:04;;;;;;;5.90;3.00;;;14.90;88.50;;;;;;5006051;28;20912;-56
2023/01/02 12:50:01;;;;;;;10.03;3.30;;;14.90;89.70;;;;;;5008254;28;20529;-57
2023/01/02 12:52:44;;;;;;;7.57;3.10;;;14.90;89.50;;;;;;5004874;28;20466;-56
2023/01/02 12:55:26;;;;;;;5.50;2.80;;;14.90;91.90;;;;;;5004906;28;20540;-58
2023/01/02 12:57:57;;;;;;;11.53;3.00;;;15.00;92.60;;;;;;5005081;28;20866;-57
2023/01/02 13:00:45;;;;;;;6.63;2.80;;;15.00;92.50;;;;;;5015554;28;20535;-57
2023/01/02 13:03:40;;;;;;;8.70;2.60;;;15.00;90.60;;;;;;5014066;28;20494;-53